createdAt,value
2017-01-04T18:32:17.229Z,5.56
2017-01-04T18:33:48.730Z,5.43
2017-01-04T18:35:08.152Z,5.47
2017-01-04T18:36:25.206Z,5.37
2017-01-04T18:37:41.232Z,5.31
2017-01-04T18:39:06.794Z,5.33
2017-01-04T18:40:26.923Z,5.26
2017-01-04T18:41:45.753Z,5.15
2017-01-04T18:43:02.369Z,5.02
2017-01-04T18:44:17.995Z,4.92
2017-01-04T18:45:34.310Z,4.84
2017-01-04T18:46:48.967Z,4.68
2017-01-04T18:48:03.787Z,4.68
2017-01-04T18:49:17.978Z,4.67
2017-01-04T18:54:17.177Z,4.94
2017-01-04T18:55:32.481Z,4.84
2017-01-04T18:56:47.788Z,4.92
2017-01-04T18:58:01.960Z,4.84
2017-01-04T18:59:17.114Z,4.94
2017-01-04T19:00:32.371Z,4.83
2017-01-04T19:01:47.044Z,4.79
2017-01-04T19:03:01.863Z,4.78
2017-01-04T19:04:16.423Z,4.95
2017-01-04T19:05:31.399Z,4.86
2017-01-04T19:06:47.531Z,4.86
2017-01-04T19:08:02.973Z,4.92
2017-01-04T19:09:18.639Z,4.95
2017-01-04T19:10:34.130Z,4.9
2017-01-04T19:11:48.569Z,4.98
2017-01-04T19:13:04.100Z,5
2017-01-04T19:14:21.921Z,4.95
2017-01-04T19:15:37.658Z,4.97
2017-01-04T19:16:51.936Z,5.02
2017-01-04T19:18:10.087Z,5.05
2017-01-04T19:19:25.474Z,5.13
2017-01-04T19:20:40.825Z,5.12
2017-01-04T19:22:04.198Z,5.12
2017-01-04T19:23:19.109Z,5.23
2017-01-04T19:24:34.937Z,5.23
2017-01-04T19:25:50.473Z,5.22
2017-01-04T19:27:05.213Z,5.22
2017-01-04T19:28:19.928Z,5.19
2017-01-04T19:29:35.774Z,5.18
2017-01-04T19:30:50.280Z,5.23
2017-01-04T19:32:05.149Z,5.25
2017-01-04T19:33:20.024Z,5.19
2017-01-04T19:34:36.736Z,5.31
2017-01-04T19:35:51.045Z,5.2
2017-01-04T19:37:06.227Z,5.08
2017-01-04T19:38:20.515Z,5.1
2017-01-04T19:39:36.146Z,5.1
2017-01-04T19:41:07.822Z,5.08
2017-01-04T19:42:23.078Z,5.1
2017-01-04T19:43:38.027Z,5.07
2017-01-04T19:44:52.834Z,4.94
2017-01-04T19:46:07.722Z,4.92
2017-01-04T19:47:23.006Z,4.95
2017-01-04T19:49:03.654Z,4.84
2017-01-04T19:50:20.105Z,4.86
2017-01-04T19:51:36.265Z,4.9
2017-01-04T19:52:50.974Z,4.86
2017-01-04T19:54:05.418Z,4.9
2017-01-04T19:55:21.748Z,4.94
2017-01-04T19:56:37.060Z,4.94
2017-01-04T19:57:53.446Z,4.94
2017-01-04T19:59:08.562Z,4.95
2017-01-04T20:00:22.818Z,4.83
2017-01-04T20:01:37.489Z,4.94
2017-01-04T20:02:53.320Z,4.76
2017-01-04T20:04:08.615Z,4.75
2017-01-04T20:05:25.701Z,4.6
2017-01-04T20:06:40.151Z,4.68
2017-01-04T20:07:56.177Z,4.79
2017-01-04T20:09:11.734Z,4.84
2017-01-04T20:10:26.504Z,4.68
2017-01-04T20:11:41.810Z,4.53
2017-01-04T20:12:56.482Z,4.57
2017-01-04T20:14:11.727Z,4.52
2017-01-04T20:15:26.029Z,4.49
2017-01-04T20:16:41.262Z,4.49
2017-01-04T20:17:55.488Z,4.45
2017-01-04T20:19:11.205Z,4.56
2017-01-04T20:20:25.804Z,4.66
2017-01-04T20:21:41.121Z,4.68
2017-01-04T20:22:56.455Z,4.53
2017-01-04T20:24:10.887Z,4.56
2017-01-04T20:25:27.397Z,4.49
2017-01-04T20:26:42.218Z,4.56
2017-01-04T20:27:56.796Z,4.53
2017-01-04T20:29:11.622Z,4.48
2017-01-04T20:30:26.241Z,4.58
2017-01-04T20:31:40.612Z,4.52
2017-01-04T20:32:58.182Z,4.5
2017-01-04T20:34:14.040Z,4.52
2017-01-04T20:35:29.315Z,4.56
2017-01-04T20:36:45.546Z,4.58
2017-01-04T20:38:00.946Z,4.48
2017-01-04T20:39:15.455Z,4.53
2017-01-04T20:40:30.382Z,4.48
2017-01-04T20:41:44.509Z,4.57
2017-01-04T20:42:58.843Z,4.53
2017-01-04T20:44:13.496Z,4.57
2017-01-04T20:45:29.055Z,4.57
2017-01-04T20:46:58.666Z,4.52
2017-01-04T20:48:12.994Z,4.63
2017-01-04T20:49:28.734Z,4.5
2017-01-04T20:50:43.351Z,4.48
2017-01-04T20:51:58.127Z,4.53
2017-01-04T20:53:13.338Z,4.48
2017-01-04T20:54:27.933Z,4.61
2017-01-04T20:55:42.376Z,4.49
2017-01-04T20:56:57.816Z,4.56
2017-01-04T20:58:12.040Z,4.49
2017-01-04T20:59:26.521Z,4.57
2017-01-04T21:00:42.287Z,4.5
2017-01-04T21:01:57.164Z,4.57
2017-01-04T21:03:11.420Z,4.57
2017-01-04T21:04:26.317Z,4.53
2017-01-04T21:05:41.060Z,4.49
2017-01-04T21:06:56.235Z,4.45
2017-01-04T21:08:10.491Z,4.57
2017-01-04T21:09:25.364Z,4.48
2017-01-04T21:10:42.098Z,4.52
2017-01-04T21:11:56.491Z,4.53
2017-01-04T21:13:11.428Z,4.49
2017-01-04T21:14:26.860Z,4.5
2017-01-04T21:15:42.168Z,4.49
2017-01-04T21:16:56.312Z,4.5
2017-01-04T21:18:10.683Z,4.52
2017-01-04T21:19:25.276Z,4.63
2017-01-04T21:20:40.043Z,4.63
2017-01-04T21:21:55.691Z,4.66
2017-01-04T21:23:12.163Z,4.49
2017-01-04T21:24:27.399Z,4.53
2017-01-04T21:25:44.703Z,4.61
2017-01-04T21:27:00.849Z,4.5
2017-01-04T21:28:16.139Z,4.48
2017-01-04T21:29:31.152Z,4.32
2017-01-04T21:30:45.875Z,4.34
2017-01-04T21:32:04.054Z,4.09
2017-01-04T21:33:18.258Z,3.73
2017-01-04T21:34:33.039Z,3.74
2017-01-04T21:35:47.894Z,3.68
2017-01-04T21:37:02.676Z,3.7
2017-01-04T21:38:17.100Z,3.68
2017-01-04T21:39:31.394Z,3.77
2017-01-04T21:40:45.715Z,3.7
2017-01-04T21:42:00.465Z,3.73
2017-01-04T21:43:14.714Z,3.67
2017-01-04T21:44:29.982Z,3.66
2017-01-04T21:45:44.728Z,3.64
2017-01-04T21:47:00.254Z,3.58
2017-01-04T21:48:15.164Z,3.61
2017-01-04T21:49:29.475Z,3.7
2017-01-04T21:50:46.827Z,3.66
2017-01-04T21:52:01.972Z,3.76
2017-01-04T21:53:17.091Z,3.76
2017-01-04T21:54:31.250Z,3.78
2017-01-04T21:55:45.549Z,3.74
2017-01-04T21:57:01.826Z,3.73
2017-01-04T21:58:15.936Z,3.84
2017-01-04T21:59:30.291Z,3.7
2017-01-04T22:00:45.526Z,3.78
2017-01-04T22:02:00.138Z,3.67
2017-01-04T22:03:15.039Z,3.73
2017-01-04T22:04:29.806Z,3.66
2017-01-04T22:05:45.845Z,3.76
2017-01-04T22:07:00.636Z,3.78
2017-01-04T22:08:15.220Z,3.76
2017-01-04T22:09:29.819Z,3.76
2017-01-04T22:10:44.035Z,3.81
2017-01-04T22:11:58.379Z,3.67
2017-01-04T22:13:12.978Z,3.76
2017-01-04T22:14:28.748Z,3.85
2017-01-04T22:15:43.704Z,3.68
2017-01-04T22:16:57.813Z,3.77
2017-01-04T22:18:13.487Z,3.73
2017-01-04T22:19:28.805Z,3.88
2017-01-04T22:20:45.888Z,3.73
2017-01-04T22:22:00.647Z,3.64
2017-01-04T22:23:14.797Z,3.66
2017-01-04T22:24:29.677Z,3.71
2017-01-04T22:25:44.409Z,3.74
2017-01-04T22:26:59.435Z,3.67
2017-01-04T22:28:13.893Z,3.68
2017-01-04T22:29:28.875Z,3.56
2017-01-04T22:30:43.264Z,3.58
2017-01-04T22:31:58.236Z,3.61
2017-01-04T22:33:13.424Z,3.5
2017-01-04T22:34:28.326Z,3.49
2017-01-04T22:35:42.755Z,3.36
2017-01-04T22:36:59.339Z,3.36
2017-01-04T22:38:15.927Z,3.48
2017-01-04T22:39:31.329Z,3.49
2017-01-04T22:40:45.977Z,3.4
2017-01-04T22:42:01.610Z,3.48
2017-01-04T22:43:16.334Z,3.53
2017-01-04T22:44:30.912Z,3.52
2017-01-04T22:45:45.657Z,3.48
2017-01-04T22:47:00.198Z,3.36
2017-01-04T22:48:28.617Z,3.49
2017-01-04T22:49:43.448Z,3.4
2017-01-04T22:50:57.640Z,3.55
2017-01-04T22:52:12.820Z,3.61
2017-01-04T22:53:27.539Z,3.48
2017-01-04T22:54:42.468Z,3.64
2017-01-04T22:55:59.632Z,3.64
2017-01-04T22:57:13.893Z,3.56
2017-01-04T22:58:28.449Z,3.66
2017-01-04T22:59:44.268Z,3.73
2017-01-04T23:00:59.659Z,3.66
2017-01-04T23:02:14.511Z,3.78
2017-01-04T23:03:29.269Z,3.68
2017-01-04T23:04:43.445Z,3.82
2017-01-04T23:05:58.552Z,3.96
2017-01-04T23:07:13.300Z,3.86
2017-01-04T23:08:30.139Z,3.95
2017-01-04T23:09:44.719Z,3.99
2017-01-04T23:10:59.126Z,4.02
2017-01-04T23:12:14.318Z,4
2017-01-04T23:13:28.726Z,4.02
2017-01-04T23:14:43.187Z,4.04
2017-01-04T23:15:57.841Z,4.04
2017-01-04T23:17:12.473Z,4.02
2017-01-04T23:18:27.127Z,4.02
2017-01-04T23:19:41.698Z,4.04
2017-01-04T23:20:56.419Z,4.02
2017-01-04T23:22:10.581Z,4.02
2017-01-04T23:23:24.954Z,4.03
2017-01-04T23:24:40.018Z,4.06
2017-01-04T23:25:54.979Z,4.02
2017-01-04T23:27:10.633Z,4.1
2017-01-04T23:28:25.284Z,4.06
2017-01-04T23:29:39.547Z,4.09
2017-01-04T23:30:53.694Z,4.06
2017-01-04T23:32:09.307Z,4.13
2017-01-04T23:33:23.740Z,4.07
2017-01-04T23:34:38.036Z,4.13
2017-01-04T23:35:52.615Z,4.09
2017-01-04T23:37:07.226Z,4.13
2017-01-04T23:38:21.341Z,4.09
2017-01-04T23:39:35.924Z,4.03
2017-01-04T23:40:51.021Z,4.04
2017-01-04T23:42:06.066Z,4
2017-01-04T23:43:21.086Z,4.03
2017-01-04T23:44:35.434Z,4.03
2017-01-04T23:45:50.571Z,4.03
2017-01-04T23:47:05.296Z,3.96
2017-01-04T23:48:20.572Z,3.99
2017-01-04T23:49:36.309Z,4.02
2017-01-04T23:50:51.226Z,4.02
2017-01-04T23:52:33.247Z,3.99
2017-01-04T23:53:48.916Z,4
2017-01-04T23:55:03.494Z,4
2017-01-04T23:56:17.816Z,3.95
2017-01-04T23:58:02.100Z,4
2017-01-04T23:59:17.697Z,4.06
